createdAt,value
2022-09-03T00:00:11.914Z,17.9
2022-09-03T00:06:10.389Z,17.8
2022-09-03T00:10:24.674Z,17.7
2022-09-03T00:15:31.051Z,17.6
2022-09-03T00:20:27.406Z,17.6
2022-09-03T00:25:33.934Z,17.5
2022-09-03T00:30:50.479Z,17.5
2022-09-03T00:58:06.800Z,17.8
2022-09-03T01:03:34.223Z,17.8
2022-09-03T01:08:40.599Z,17.7
2022-09-03T01:13:16.984Z,17.5
2022-09-03T01:18:33.483Z,17.3
2022-09-03T01:23:39.872Z,17.1
2022-09-03T01:29:00.345Z,17.0
2022-09-03T01:33:52.663Z,16.8
2022-09-03T01:38:59.184Z,16.7
2022-09-03T01:44:09.542Z,16.6
2022-09-03T01:49:11.909Z,16.5
2022-09-03T01:54:21.255Z,16.5
2022-09-03T01:59:24.840Z,16.4
2022-09-03T02:09:37.601Z,16.2
2022-09-03T02:14:43.963Z,16.2
2022-09-03T02:19:50.352Z,16.1
2022-09-03T02:24:56.721Z,16.1
2022-09-03T02:30:03.178Z,16.0
2022-09-03T02:35:09.627Z,15.9
2022-09-03T02:40:19.967Z,15.9
2022-09-03T02:45:42.413Z,15.8
2022-09-03T02:50:18.702Z,15.8
2022-09-03T02:55:42.670Z,15.7
2022-09-03T03:01:08.140Z,15.7
2022-09-03T03:05:51.462Z,15.6
2022-09-03T03:11:32.930Z,15.5
2022-09-03T03:16:40.502Z,15.5
2022-09-03T03:23:59.064Z,15.5
2022-09-03T03:26:53.235Z,15.4
2022-09-03T03:32:19.674Z,15.4
2022-09-03T03:37:30.052Z,15.3
2022-09-03T03:42:12.400Z,15.3
2022-09-03T03:47:39.943Z,15.2
2022-09-03T03:52:26.388Z,15.2
2022-09-03T03:57:32.780Z,15.1
2022-09-03T04:02:39.425Z,15.1
2022-09-03T04:08:09.674Z,15.0
2022-09-03T04:13:12.030Z,14.9
2022-09-03T04:18:18.411Z,14.9
2022-09-03T04:23:04.806Z,14.8
2022-09-03T04:28:11.298Z,14.8
2022-09-03T04:33:17.887Z,14.7
2022-09-03T04:38:24.389Z,14.7
2022-09-03T04:43:30.688Z,14.6
2022-09-03T04:48:37.808Z,14.5
2022-09-03T04:53:43.467Z,14.5
2022-09-03T04:58:39.823Z,14.4
2022-09-03T05:04:40.484Z,14.4
2022-09-03T05:09:02.879Z,14.3
2022-09-03T05:14:13.261Z,14.3
2022-09-03T05:19:15.632Z,14.3
2022-09-03T05:24:22.012Z,14.3
2022-09-03T05:34:34.809Z,14.2
2022-09-03T05:39:31.323Z,14.2
2022-09-03T05:44:47.668Z,14.3
2022-09-03T05:49:54.056Z,14.2
2022-09-03T05:55:04.456Z,14.2
2022-09-03T06:00:06.820Z,14.2
2022-09-03T06:05:37.260Z,14.3
2022-09-03T06:10:24.972Z,14.3
2022-09-03T06:15:15.956Z,14.3
2022-09-03T06:21:00.402Z,14.4
2022-09-03T06:31:29.281Z,14.5
2022-09-03T06:36:15.571Z,14.5
2022-09-03T06:51:00.778Z,14.8
2022-09-03T06:56:07.790Z,14.9
2022-09-03T07:01:23.640Z,15.0
2022-09-03T07:06:29.955Z,15.1
2022-09-03T07:11:36.341Z,15.3
2022-09-03T07:16:42.788Z,15.4
2022-09-03T07:21:50.562Z,15.6
2022-09-03T07:26:55.483Z,15.8
2022-09-03T07:32:05.931Z,16.0
2022-09-03T07:37:08.263Z,16.4
2022-09-03T07:42:14.748Z,17.1
2022-09-03T07:47:41.174Z,18.2
2022-09-03T07:52:51.569Z,19.3
2022-09-03T08:06:16.576Z,22.4
2022-09-03T08:12:04.067Z,24.6
2022-09-03T08:22:12.835Z,25.5
2022-09-03T08:27:20.219Z,26.2
2022-09-03T08:32:26.580Z,27.0
2022-09-03T08:37:32.965Z,27.8
2022-09-03T08:42:39.332Z,28.4
2022-09-03T08:47:45.720Z,29.1
2022-09-03T08:54:08.282Z,29.7
2022-09-03T08:57:58.478Z,30.4
2022-09-03T09:03:04.897Z,30.9
2022-09-03T09:08:11.252Z,31.4
2022-09-03T09:13:17.651Z,32.0
2022-09-03T09:18:14.021Z,32.4
2022-09-03T09:24:25.596Z,33.3
2022-09-03T09:32:21.800Z,33.8
2022-09-03T09:40:45.561Z,34.2
2022-09-03T09:46:11.525Z,34.7
2022-09-03T09:50:57.774Z,35.0
2022-09-03T09:56:04.227Z,35.4
2022-09-03T10:01:10.624Z,35.8
2022-09-03T10:06:20.968Z,36.1
2022-09-03T10:11:27.364Z,36.5
2022-09-03T10:16:29.758Z,36.8
2022-09-03T10:21:36.153Z,37.2
2022-09-03T10:26:42.529Z,37.5
2022-09-03T10:31:48.909Z,37.8
2022-09-03T10:36:59.286Z,38.1
2022-09-03T10:42:01.695Z,38.3
2022-09-03T10:46:58.049Z,38.5
2022-09-03T10:52:14.465Z,38.7
2022-09-03T10:57:21.966Z,38.9
2022-09-03T11:02:28.416Z,39.0
2022-09-03T11:12:21.880Z,39.4
2022-09-03T11:17:49.301Z,39.4
2022-09-03T11:22:35.676Z,39.7
2022-09-03T11:27:43.630Z,39.7
2022-09-03T11:32:55.873Z,39.7
2022-09-03T11:37:46.375Z,39.8
2022-09-03T11:43:02.789Z,39.9
2022-09-03T11:48:09.231Z,40.0
2022-09-03T11:53:15.715Z,40.0
2022-09-03T11:58:22.117Z,40.1
2022-09-03T12:03:28.505Z,40.2
2022-09-03T12:08:34.866Z,40.2
2022-09-03T12:13:41.250Z,40.2
2022-09-03T12:18:47.625Z,40.1
2022-09-03T12:24:37.865Z,39.9
2022-09-03T12:30:25.939Z,39.9
2022-09-03T12:34:49.773Z,39.7
2022-09-03T12:40:08.347Z,39.4
2022-09-03T12:44:52.585Z,39.1
2022-09-03T12:50:10.967Z,38.8
2022-09-03T12:55:16.390Z,38.6
2022-09-03T13:00:23.060Z,38.5
2022-09-03T13:06:03.523Z,38.2
2022-09-03T13:11:09.902Z,38.2
2022-09-03T13:16:17.331Z,38.2
2022-09-03T13:21:14.688Z,38.2
2022-09-03T13:26:31.100Z,38.2
2022-09-03T13:31:37.569Z,38.1
2022-09-03T13:36:34.049Z,38.1
2022-09-03T13:41:50.462Z,38.1
2022-09-03T13:46:46.818Z,38.1
2022-09-03T13:52:02.248Z,38.0
2022-09-03T13:57:37.676Z,38.0
2022-09-03T14:02:20.129Z,37.9
2022-09-03T14:07:22.401Z,37.8
2022-09-03T14:12:52.800Z,37.7
2022-09-03T14:17:35.128Z,37.6
2022-09-03T14:22:31.486Z,37.4
2022-09-03T14:27:46.879Z,37.2
2022-09-03T14:33:08.313Z,37.0
2022-09-03T14:38:00.638Z,36.8
2022-09-03T14:43:07.025Z,36.5
2022-09-03T14:48:17.411Z,36.2
2022-09-03T14:53:09.836Z,35.8
2022-09-03T14:58:26.356Z,35.3
2022-09-03T15:03:22.880Z,34.9
2022-09-03T15:08:39.240Z,34.5
2022-09-03T15:13:35.556Z,34.1
2022-09-03T15:18:51.951Z,33.7
2022-09-03T15:23:58.320Z,33.3
2022-09-03T15:29:06.278Z,33.0
2022-09-03T15:34:12.788Z,32.6
2022-09-03T15:39:19.278Z,32.3
2022-09-03T15:44:25.632Z,31.6
2022-09-03T15:49:36.580Z,31.0
2022-09-03T15:54:38.950Z,30.9
2022-09-03T15:59:35.313Z,30.8
2022-09-03T16:04:51.727Z,30.6
2022-09-03T16:10:02.016Z,30.4
2022-09-03T16:15:04.549Z,30.3
2022-09-03T16:20:10.928Z,30.2
2022-09-03T16:26:30.300Z,30.0
2022-09-03T16:30:25.544Z,29.8
2022-09-03T16:36:17.009Z,29.5
2022-09-03T16:41:38.418Z,29.5
2022-09-03T16:46:20.755Z,29.4
2022-09-03T16:52:01.209Z,29.3
2022-09-03T16:56:43.552Z,29.2
2022-09-03T17:02:50.127Z,29.1
2022-09-03T17:07:40.498Z,29.0
2022-09-03T17:12:02.796Z,28.9
2022-09-03T17:17:09.167Z,28.8
2022-09-03T17:22:15.565Z,28.7
2022-09-03T17:27:21.938Z,28.6
2022-09-03T17:32:28.331Z,28.4
2022-09-03T17:37:34.714Z,28.3
2022-09-03T17:43:02.223Z,28.2
2022-09-03T17:48:08.581Z,27.9
2022-09-03T17:52:55.011Z,27.7
2022-09-03T17:58:05.406Z,27.7
2022-09-03T18:02:57.795Z,27.5
2022-09-03T18:09:15.886Z,27.4
2022-09-03T18:13:26.353Z,27.2
2022-09-03T18:18:48.648Z,27.0
2022-09-03T18:23:54.949Z,26.8
2022-09-03T18:30:13.546Z,26.6
2022-09-03T18:33:47.757Z,26.4
2022-09-03T18:38:44.122Z,26.2
2022-09-03T18:44:00.520Z,26.0
2022-09-03T18:49:26.957Z,25.8
2022-09-03T18:54:13.299Z,25.6
2022-09-03T18:59:39.787Z,25.4
2022-09-03T19:04:26.253Z,25.2
2022-09-03T19:09:32.627Z,25.0
2022-09-03T19:14:39.017Z,24.9
2022-09-03T19:19:45.393Z,24.7
2022-09-03T19:25:11.829Z,24.5
2022-09-03T19:30:18.213Z,24.3
2022-09-03T19:34:54.523Z,24.1
2022-09-03T19:40:11.047Z,24.0
2022-09-03T19:45:17.520Z,23.8
2022-09-03T19:50:23.912Z,23.7
2022-09-03T19:55:31.554Z,23.5
2022-09-03T20:05:43.166Z,23.2
2022-09-03T20:11:33.635Z,23.1
2022-09-03T20:15:55.986Z,23.0
2022-09-03T20:26:10.708Z,22.7
2022-09-03T20:31:29.460Z,22.6
2022-09-03T20:36:21.727Z,22.5
2022-09-03T20:41:18.077Z,22.3
2022-09-03T20:46:37.718Z,22.2
2022-09-03T20:51:44.013Z,22.1
2022-09-03T21:01:56.847Z,21.8
2022-09-03T21:07:04.725Z,21.8
2022-09-03T21:12:11.490Z,21.7
2022-09-03T21:17:19.921Z,21.5
2022-09-03T21:22:25.403Z,21.4
2022-09-03T21:27:31.811Z,21.4
2022-09-03T21:37:44.571Z,21.1
2022-09-03T21:49:01.067Z,20.9
2022-09-03T21:54:43.521Z,20.8
2022-09-03T21:59:50.901Z,20.8
2022-09-03T22:04:57.391Z,20.7
2022-09-03T22:09:53.846Z,20.6
2022-09-03T22:15:10.347Z,20.5
2022-09-03T22:22:37.003Z,20.4
2022-09-03T22:26:07.213Z,20.3
2022-09-03T22:30:29.579Z,20.2
2022-09-03T22:35:36.049Z,20.1
2022-09-03T22:41:06.486Z,20.0
2022-09-03T22:45:48.916Z,19.9
2022-09-03T22:50:55.194Z,19.9
2022-09-03T22:56:21.614Z,19.8
2022-09-03T23:01:08.051Z,19.7
2022-09-03T23:06:14.407Z,19.6
2022-09-03T23:11:20.785Z,19.6
2022-09-03T23:16:27.216Z,19.5
2022-09-03T23:21:57.625Z,19.4
2022-09-03T23:26:59.966Z,19.3
2022-09-03T23:37:32.919Z,19.2
2022-09-03T23:42:23.107Z,19.1
2022-09-03T23:47:25.478Z,19.0
2022-09-03T23:52:56.071Z,18.9
2022-09-03T23:57:38.410Z,18.9
